createdAt,value
2018-08-12T00:00:17.624Z,23.96
2018-08-12T00:02:25.680Z,23.90
2018-08-12T00:04:31.589Z,23.83
2018-08-12T00:06:36.601Z,23.67
2018-08-12T00:08:42.315Z,23.49
2018-08-12T00:10:46.032Z,23.77
2018-08-12T00:12:49.740Z,23.45
2018-08-12T00:14:53.776Z,23.72
2018-08-12T00:16:57.498Z,23.86
2018-08-12T00:19:01.453Z,23.52
2018-08-12T00:21:05.648Z,23.54
2018-08-12T00:23:10.245Z,23.85
2018-08-12T00:25:15.517Z,23.87
2018-08-12T00:27:19.474Z,23.65
2018-08-12T00:29:27.349Z,23.70
2018-08-12T00:31:33.674Z,23.99
2018-08-12T00:33:41.723Z,23.82
2018-08-12T00:35:45.691Z,23.70
2018-08-12T00:37:49.442Z,23.89
2018-08-12T00:39:53.821Z,23.78
2018-08-12T00:41:57.642Z,23.72
2018-08-12T00:44:01.543Z,23.50
2018-08-12T00:46:06.062Z,23.95
2018-08-12T00:48:10.068Z,23.96
2018-08-12T00:50:14.585Z,23.59
2018-08-12T00:52:18.195Z,23.33
2018-08-12T00:54:21.861Z,23.51
2018-08-12T00:56:32.018Z,23.31
2018-08-12T00:58:38.618Z,23.45
2018-08-12T01:00:45.689Z,23.61
2018-08-12T01:02:50.345Z,23.68
2018-08-12T01:04:54.796Z,23.63
2018-08-12T01:07:00.353Z,22.92
2018-08-12T01:09:07.037Z,23.00
2018-08-12T01:11:11.935Z,23.34
2018-08-12T01:13:16.075Z,23.43
2018-08-12T01:15:21.237Z,23.18
2018-08-12T01:17:26.598Z,23.35
2018-08-12T01:19:34.985Z,23.59
2018-08-12T01:21:39.832Z,23.39
2018-08-12T01:23:46.857Z,23.79
2018-08-12T01:25:52.528Z,23.30
2018-08-12T01:27:57.059Z,23.34
2018-08-12T01:30:04.076Z,23.88
2018-08-12T01:32:12.751Z,23.70
2018-08-12T01:34:19.112Z,23.68
2018-08-12T01:36:23.853Z,23.81
2018-08-12T01:38:28.452Z,23.78
2018-08-12T01:40:32.378Z,23.79
2018-08-12T01:42:38.177Z,23.47
2018-08-12T01:44:41.945Z,23.30
2018-08-12T01:46:46.035Z,23.66
2018-08-12T01:48:50.630Z,23.69
2018-08-12T01:50:55.533Z,23.52
2018-08-12T01:52:59.955Z,23.41
2018-08-12T01:55:04.951Z,23.76
2018-08-12T01:57:09.307Z,23.54
2018-08-12T01:59:20.173Z,23.58
2018-08-12T02:01:24.969Z,23.82
2018-08-12T02:03:29.693Z,23.72
2018-08-12T02:05:34.337Z,23.73
2018-08-12T02:07:38.624Z,23.43
2018-08-12T02:09:42.982Z,23.32
2018-08-12T02:11:47.428Z,23.15
2018-08-12T02:13:51.384Z,23.40
2018-08-12T02:15:55.885Z,23.20
2018-08-12T02:18:01.294Z,23.36
2018-08-12T02:20:05.714Z,23.53
2018-08-12T02:22:13.089Z,23.61
2018-08-12T02:24:20.134Z,23.63
2018-08-12T02:26:27.793Z,23.55
2018-08-12T02:28:33.794Z,23.50
2018-08-12T02:30:37.725Z,23.42
2018-08-12T02:32:43.027Z,23.13
2018-08-12T02:34:46.850Z,23.12
2018-08-12T02:36:50.600Z,23.27
2018-08-12T02:38:54.893Z,23.41
2018-08-12T02:40:59.159Z,23.33
2018-08-12T02:43:03.319Z,23.07
2018-08-12T02:45:10.443Z,23.11
2018-08-12T02:47:17.773Z,23.21
2018-08-12T02:49:24.609Z,23.35
2018-08-12T02:51:32.555Z,23.08
2018-08-12T02:53:38.090Z,23.62
2018-08-12T02:55:45.814Z,23.44
2018-08-12T02:57:51.277Z,23.41
2018-08-12T02:59:56.298Z,24.02
2018-08-12T03:02:00.944Z,23.34
2018-08-12T03:04:05.853Z,23.35
2018-08-12T03:06:11.768Z,23.55
2018-08-12T03:08:19.362Z,23.15
2018-08-12T03:10:27.174Z,22.76
2018-08-12T03:12:34.132Z,23.23
2018-08-12T03:14:38.178Z,23.21
2018-08-12T03:16:41.958Z,22.72
2018-08-12T03:18:46.189Z,22.80
2018-08-12T03:20:49.952Z,23.13
2018-08-12T03:22:53.693Z,23.02
2018-08-12T03:24:57.224Z,23.31
2018-08-12T03:27:01.078Z,22.71
2018-08-12T03:29:04.794Z,22.81
2018-08-12T03:31:08.733Z,23.08
2018-08-12T03:33:12.700Z,22.78
2018-08-12T03:35:16.617Z,23.42
2018-08-12T03:37:22.459Z,22.69
2018-08-12T03:39:30.084Z,23.39
2018-08-12T03:41:40.635Z,23.33
2018-08-12T03:43:44.852Z,23.26
2018-08-12T03:45:48.695Z,23.08
2018-08-12T03:47:52.403Z,22.55
2018-08-12T03:49:56.779Z,22.78
2018-08-12T03:52:00.418Z,22.46
2018-08-12T03:54:04.861Z,22.71
2018-08-12T03:56:09.290Z,22.90
2018-08-12T03:58:13.002Z,22.62
2018-08-12T04:00:17.751Z,23.23
2018-08-12T04:02:21.351Z,22.64
2018-08-12T04:04:27.243Z,22.88
2018-08-12T04:06:34.593Z,22.76
2018-08-12T04:08:40.814Z,22.68
2018-08-12T04:10:45.273Z,22.61
2018-08-12T04:12:48.972Z,22.74
2018-08-12T04:14:52.592Z,22.30
2018-08-12T04:16:58.928Z,22.81
2018-08-12T04:19:02.922Z,22.12
2018-08-12T04:21:06.579Z,22.26
2018-08-12T04:23:10.320Z,22.58
2018-08-12T04:25:14.259Z,22.43
2018-08-12T04:27:18.129Z,22.38
2018-08-12T04:29:22.042Z,22.54
2018-08-12T04:31:25.592Z,22.80
2018-08-12T04:33:30.381Z,22.36
2018-08-12T04:35:38.072Z,22.92
2018-08-12T04:37:42.969Z,22.68
2018-08-12T04:39:49.060Z,22.90
2018-08-12T04:41:52.536Z,23.11
2018-08-12T04:43:56.141Z,22.61
2018-08-12T04:46:00.008Z,22.78
2018-08-12T04:48:07.128Z,22.43
2018-08-12T04:50:12.989Z,22.91
2018-08-12T04:52:19.776Z,23.07
2018-08-12T04:54:25.114Z,23.61
2018-08-12T04:56:29.122Z,23.41
2018-08-12T04:58:32.738Z,23.33
2018-08-12T05:00:36.796Z,23.41
2018-08-12T05:02:40.495Z,23.06
2018-08-12T05:04:44.306Z,23.07
2018-08-12T05:06:48.361Z,23.11
2018-08-12T05:08:52.025Z,23.50
2018-08-12T05:10:56.827Z,23.77
2018-08-12T05:13:00.971Z,23.39
2018-08-12T05:15:08.141Z,23.15
2018-08-12T05:17:15.706Z,23.19
2018-08-12T05:19:22.123Z,22.99
2018-08-12T05:21:27.369Z,23.19
2018-08-12T05:23:31.225Z,22.84
2018-08-12T05:25:34.929Z,22.76
2018-08-12T05:27:39.010Z,23.14
2018-08-12T05:29:42.792Z,23.36
2018-08-12T05:31:46.557Z,23.27
2018-08-12T05:33:50.318Z,23.28
2018-08-12T05:35:53.878Z,23.51
2018-08-12T05:37:57.703Z,23.42
2018-08-12T05:40:01.997Z,23.32
2018-08-12T05:42:05.857Z,23.62
2018-08-12T05:44:09.798Z,23.41
2018-08-12T05:46:15.110Z,23.04
2018-08-12T05:48:22.212Z,23.02
2018-08-12T05:50:27.216Z,23.32
2018-08-12T05:52:31.673Z,23.23
2018-08-12T05:54:35.711Z,23.26
2018-08-12T05:56:39.180Z,23.42
2018-08-12T05:58:42.669Z,23.88
2018-08-12T06:00:46.553Z,23.66
2018-08-12T06:02:50.355Z,23.45
2018-08-12T06:04:54.525Z,23.62
2018-08-12T06:06:58.749Z,24.06
2018-08-12T06:09:02.393Z,23.62
2018-08-12T06:11:05.878Z,23.98
2018-08-12T06:13:09.906Z,23.97
2018-08-12T06:15:19.718Z,23.78
2018-08-12T06:17:27.252Z,23.62
2018-08-12T06:19:32.037Z,23.62
2018-08-12T06:21:38.182Z,23.59
2018-08-12T06:23:42.151Z,23.53
2018-08-12T06:25:46.143Z,23.77
2018-08-12T06:27:50.109Z,23.37
2018-08-12T06:29:53.867Z,23.97
2018-08-12T06:31:58.160Z,23.74
2018-08-12T06:34:01.658Z,23.62
2018-08-12T06:36:05.249Z,24.26
2018-08-12T06:38:08.855Z,24.00
2018-08-12T06:40:13.450Z,24.05
2018-08-12T06:42:17.250Z,23.86
2018-08-12T06:44:24.550Z,23.90
2018-08-12T06:46:30.667Z,24.04
2018-08-12T06:48:36.494Z,23.98
2018-08-12T06:50:40.917Z,24.03
2018-08-12T06:52:44.760Z,24.19
2018-08-12T06:54:48.505Z,24.44
2018-08-12T06:56:52.339Z,24.64
2018-08-12T06:58:56.165Z,24.54
2018-08-12T07:01:00.129Z,24.41
2018-08-12T07:03:05.216Z,24.51
2018-08-12T07:05:10.058Z,24.65
2018-08-12T07:07:14.428Z,24.73
2018-08-12T07:09:18.689Z,24.89
2018-08-12T07:11:22.541Z,24.88
2018-08-12T07:13:29.611Z,24.88
2018-08-12T07:15:37.591Z,24.74
2018-08-12T07:17:47.144Z,25.00
2018-08-12T07:19:50.892Z,24.99
2018-08-12T07:22:01.439Z,25.05
2018-08-12T07:24:05.329Z,25.14
2018-08-12T07:26:08.966Z,25.24
2018-08-12T07:28:13.116Z,25.27
2018-08-12T07:30:17.964Z,25.20
2018-08-12T07:32:22.855Z,25.47
2018-08-12T07:34:26.946Z,25.30
2018-08-12T07:36:31.997Z,25.05
2018-08-12T07:38:38.241Z,25.11
2018-08-12T07:40:44.639Z,25.28
2018-08-12T07:43:01.702Z,25.36
2018-08-12T07:45:12.721Z,25.33
2018-08-12T07:47:16.794Z,25.41
2018-08-12T07:49:22.752Z,25.53
2018-08-12T07:51:27.893Z,25.55
2018-08-12T07:53:35.466Z,25.69
2018-08-12T07:55:45.176Z,25.54
2018-08-12T07:57:53.851Z,25.68
2018-08-12T07:59:57.655Z,25.69
2018-08-12T08:02:01.660Z,25.63
2018-08-12T08:04:09.019Z,25.76
2018-08-12T08:06:22.581Z,25.87
2018-08-12T08:08:45.285Z,25.95
2018-08-12T08:10:53.971Z,25.74
2018-08-12T08:13:21.359Z,25.73
2018-08-12T08:17:44.554Z,25.83
2018-08-12T08:19:48.399Z,25.95
2018-08-12T08:21:53.125Z,26.02
2018-08-12T08:23:58.799Z,26.15
2018-08-12T08:26:09.253Z,26.21
2018-08-12T08:28:19.918Z,26.19
2018-08-12T08:30:28.609Z,25.92
2018-08-12T08:32:32.527Z,25.94
2018-08-12T08:34:36.248Z,26.17
2018-08-12T08:36:40.763Z,26.25
2018-08-12T08:38:44.754Z,26.37
2018-08-12T08:40:48.531Z,26.32
2018-08-12T08:42:52.080Z,26.30
2018-08-12T08:44:56.328Z,26.34
2018-08-12T08:47:00.022Z,26.23
2018-08-12T08:49:04.361Z,26.36
2018-08-12T08:51:08.447Z,26.54
2018-08-12T08:53:16.568Z,26.49
2018-08-12T08:55:22.607Z,26.56
2018-08-12T08:59:37.961Z,26.55
2018-08-12T09:01:43.239Z,26.56
2018-08-12T09:03:47.864Z,26.42
2018-08-12T09:05:52.998Z,26.54
2018-08-12T09:07:57.341Z,26.54
2018-08-12T09:10:00.983Z,26.62
2018-08-12T09:12:04.964Z,26.47
2018-08-12T09:14:09.509Z,26.44
2018-08-12T09:16:13.494Z,26.58
2018-08-12T09:18:20.996Z,26.65
2018-08-12T09:20:28.245Z,26.65
2018-08-12T09:22:32.291Z,26.72
2018-08-12T09:24:36.708Z,26.75
2018-08-12T09:26:40.688Z,26.68
2018-08-12T09:28:44.804Z,26.58
2018-08-12T09:30:49.027Z,26.51
2018-08-12T09:32:53.079Z,26.50
2018-08-12T09:34:56.793Z,26.69
2018-08-12T09:37:00.382Z,26.76
2018-08-12T09:39:06.236Z,26.74
2018-08-12T09:41:10.496Z,26.77
2018-08-12T09:43:15.575Z,26.80
2018-08-12T09:45:23.453Z,26.77
2018-08-12T09:47:29.828Z,26.72
2018-08-12T09:49:41.000Z,26.79
2018-08-12T09:51:44.821Z,26.63
2018-08-12T09:53:49.232Z,26.59
2018-08-12T09:55:52.905Z,26.63
2018-08-12T09:57:59.255Z,26.64
2018-08-12T10:00:03.633Z,26.61
2018-08-12T10:02:08.571Z,26.64
2018-08-12T10:04:13.236Z,26.54
2018-08-12T10:06:17.579Z,26.46
2018-08-12T10:08:21.225Z,26.61
2018-08-12T10:10:28.979Z,26.70
2018-08-12T10:12:37.008Z,26.76
2018-08-12T10:14:42.212Z,26.80
2018-08-12T10:16:46.391Z,26.86
2018-08-12T10:18:50.187Z,26.75
2018-08-12T10:20:54.245Z,26.80
2018-08-12T10:22:58.391Z,26.72
2018-08-12T10:25:02.548Z,26.85
2018-08-12T10:27:08.070Z,26.88
2018-08-12T10:29:12.438Z,26.87
2018-08-12T10:31:16.233Z,26.93
2018-08-12T10:33:19.883Z,26.97
2018-08-12T10:35:23.659Z,26.99
2018-08-12T10:37:28.602Z,26.86
2018-08-12T10:39:35.396Z,26.86
2018-08-12T10:41:40.673Z,26.74
2018-08-12T10:43:45.214Z,26.80
2018-08-12T10:45:49.040Z,26.79
2018-08-12T10:47:52.884Z,26.84
2018-08-12T10:49:58.118Z,26.86
2018-08-12T10:52:02.358Z,26.71
2018-08-12T10:54:06.692Z,26.79
2018-08-12T10:56:10.899Z,26.80
2018-08-12T10:58:15.480Z,26.83
2018-08-12T11:00:22.620Z,26.88
2018-08-12T11:02:26.413Z,26.81
2018-08-12T11:04:30.283Z,26.84
2018-08-12T11:06:35.938Z,26.88
2018-08-12T11:08:42.676Z,26.88
2018-08-12T11:10:47.827Z,26.90
2018-08-12T11:12:52.568Z,26.94
2018-08-12T11:14:56.363Z,26.90
2018-08-12T11:17:00.384Z,26.90
2018-08-12T11:19:05.929Z,27.00
2018-08-12T11:21:10.557Z,26.97
2018-08-12T11:23:14.562Z,26.94
2018-08-12T11:25:18.630Z,27.09
2018-08-12T11:27:22.334Z,27.18
2018-08-12T11:29:25.951Z,27.24
2018-08-12T11:31:31.126Z,27.22
2018-08-12T11:33:34.651Z,27.25
2018-08-12T11:35:38.602Z,27.30
2018-08-12T11:37:44.072Z,27.34
2018-08-12T11:39:49.079Z,27.33
2018-08-12T11:41:57.244Z,27.36
2018-08-12T11:44:01.149Z,27.36
2018-08-12T11:46:05.124Z,27.21
2018-08-12T11:48:08.845Z,27.31
2018-08-12T11:50:13.904Z,27.38
2018-08-12T11:52:18.627Z,27.18
2018-08-12T11:54:22.701Z,27.33
2018-08-12T11:56:26.711Z,27.44
2018-08-12T11:58:30.545Z,27.48
2018-08-12T12:00:34.704Z,27.58
2018-08-12T12:02:39.895Z,27.73
2018-08-12T12:04:46.528Z,27.97
2018-08-12T12:06:56.351Z,28.55
2018-08-12T12:09:10.514Z,28.83
2018-08-12T12:11:18.758Z,30.60
2018-08-12T12:13:24.330Z,31.32
2018-08-12T12:15:28.309Z,31.74
2018-08-12T12:17:36.464Z,32.33
2018-08-12T12:19:45.629Z,32.91
2018-08-12T12:21:55.740Z,33.18
2018-08-12T12:24:01.648Z,33.37
2018-08-12T12:26:08.421Z,33.74
2018-08-12T12:28:13.557Z,33.36
2018-08-12T12:30:23.609Z,34.32
2018-08-12T12:32:32.515Z,34.57
2018-08-12T12:34:49.911Z,34.89
2018-08-12T12:36:56.800Z,34.94
2018-08-12T12:39:02.691Z,34.86
2018-08-12T12:41:13.497Z,34.67
2018-08-12T12:43:17.871Z,34.57
2018-08-12T12:45:21.929Z,35.64
2018-08-12T12:47:27.551Z,36.12
2018-08-12T12:49:31.844Z,36.16
2018-08-12T12:51:36.267Z,36.55
2018-08-12T12:53:40.429Z,36.34
2018-08-12T12:55:44.133Z,36.48
2018-08-12T12:57:48.841Z,36.81
2018-08-12T12:59:55.052Z,36.75
2018-08-12T13:02:01.883Z,36.62
2018-08-12T13:04:07.247Z,36.44
2018-08-12T13:06:11.327Z,36.41
2018-08-12T13:08:17.181Z,36.45
2018-08-12T13:10:20.866Z,35.59
2018-08-12T13:12:24.737Z,35.72
2018-08-12T13:14:28.646Z,35.72
2018-08-12T13:16:32.347Z,36.12
2018-08-12T13:18:36.900Z,36.68
2018-08-12T13:20:40.531Z,37.03
2018-08-12T13:22:45.388Z,36.64
2018-08-12T13:24:49.017Z,36.42
2018-08-12T13:26:53.568Z,35.50
2018-08-12T13:28:58.829Z,35.66
2018-08-12T13:31:06.698Z,36.43
2018-08-12T13:33:17.063Z,36.53
2018-08-12T13:35:20.842Z,36.47
2018-08-12T13:37:24.887Z,36.42
2018-08-12T13:39:29.397Z,36.23
2018-08-12T13:41:33.568Z,35.80
2018-08-12T13:43:38.210Z,34.91
2018-08-12T13:45:41.832Z,34.78
2018-08-12T13:47:46.372Z,34.78
2018-08-12T13:49:50.297Z,34.67
2018-08-12T13:51:54.157Z,34.08
2018-08-12T13:53:58.185Z,33.67
2018-08-12T13:56:06.084Z,33.37
2018-08-12T13:58:12.205Z,33.18
2018-08-12T14:00:18.094Z,32.91
2018-08-12T14:02:22.496Z,32.78
2018-08-12T14:04:26.909Z,32.41
2018-08-12T14:06:31.086Z,32.22
2018-08-12T14:08:35.518Z,31.99
2018-08-12T14:10:39.186Z,32.02
2018-08-12T14:12:42.791Z,31.98
2018-08-12T14:14:46.603Z,31.97
2018-08-12T14:16:51.018Z,32.01
2018-08-12T14:18:55.245Z,31.90
2018-08-12T14:20:59.846Z,31.90
2018-08-12T14:23:06.802Z,31.95
2018-08-12T14:25:11.936Z,31.85
2018-08-12T14:27:16.253Z,31.88
2018-08-12T14:29:22.055Z,31.87
2018-08-12T14:31:27.736Z,31.83
2018-08-12T14:33:32.711Z,31.79
2018-08-12T14:35:37.290Z,31.83
2018-08-12T14:37:48.030Z,31.81
2018-08-12T14:39:56.497Z,31.80
2018-08-12T14:42:00.516Z,31.78
2018-08-12T14:44:06.319Z,31.82
2018-08-12T14:46:10.445Z,31.76
2018-08-12T14:48:15.503Z,31.81
2018-08-12T14:50:24.223Z,31.63
2018-08-12T14:52:38.063Z,31.67
2018-08-12T14:54:51.770Z,31.67
2018-08-12T14:57:00.122Z,31.69
2018-08-12T14:59:04.619Z,31.58
2018-08-12T15:01:08.619Z,31.72
2018-08-12T15:03:12.754Z,31.70
2018-08-12T15:05:17.674Z,31.79
2018-08-12T15:07:21.541Z,31.67
2018-08-12T15:09:25.624Z,31.71
2018-08-12T15:11:29.759Z,31.73
2018-08-12T15:13:34.239Z,31.60
2018-08-12T15:15:39.643Z,31.52
2018-08-12T15:17:45.198Z,31.66
2018-08-12T15:19:53.802Z,31.65
2018-08-12T15:22:12.455Z,31.61
2018-08-12T15:24:16.182Z,31.66
2018-08-12T15:26:20.684Z,31.68
2018-08-12T15:28:25.076Z,31.67
2018-08-12T15:30:28.645Z,31.66
2018-08-12T15:32:40.556Z,31.69
2018-08-12T15:34:45.766Z,31.88
2018-08-12T15:36:54.169Z,31.96
2018-08-12T15:39:01.673Z,31.93
2018-08-12T15:41:06.740Z,31.85
2018-08-12T15:43:10.996Z,31.84
2018-08-12T15:45:16.665Z,31.84
2018-08-12T15:47:20.557Z,31.88
2018-08-12T15:49:24.538Z,31.82
2018-08-12T15:51:31.854Z,31.85
2018-08-12T15:53:35.725Z,31.84
2018-08-12T15:55:41.430Z,31.97
2018-08-12T15:57:45.088Z,31.95
2018-08-12T15:59:51.450Z,32.01
2018-08-12T16:01:59.182Z,32.02
2018-08-12T16:04:07.071Z,31.95
2018-08-12T16:06:11.783Z,31.93
2018-08-12T16:08:16.625Z,31.99
2018-08-12T16:10:22.747Z,31.88
2018-08-12T16:12:26.318Z,31.88
2018-08-12T16:14:30.433Z,31.71
2018-08-12T16:16:35.006Z,31.73
2018-08-12T16:18:41.753Z,31.75
2018-08-12T16:20:45.390Z,31.78
2018-08-12T16:22:49.468Z,31.69
2018-08-12T16:24:53.304Z,31.66
2018-08-12T16:26:59.031Z,31.52
2018-08-12T16:29:07.133Z,31.34
2018-08-12T16:31:13.961Z,31.28
2018-08-12T16:33:19.365Z,31.14
2018-08-12T16:35:23.465Z,31.17
2018-08-12T16:37:27.156Z,31.05
2018-08-12T16:39:30.827Z,31.04
2018-08-12T16:41:34.928Z,31.00
2018-08-12T16:43:38.600Z,30.97
2018-08-12T16:45:42.720Z,30.94
2018-08-12T16:47:47.974Z,30.98
2018-08-12T16:49:51.975Z,30.96
2018-08-12T16:51:56.010Z,30.95
2018-08-12T16:54:01.260Z,30.86
2018-08-12T16:56:10.770Z,30.76
2018-08-12T16:58:21.696Z,30.82
2018-08-12T17:00:27.616Z,30.78
2018-08-12T17:02:32.449Z,30.71
2018-08-12T17:04:38.024Z,30.68
2018-08-12T17:06:42.897Z,30.68
2018-08-12T17:08:47.369Z,30.56
2018-08-12T17:10:51.101Z,30.51
2018-08-12T17:12:55.350Z,30.54
2018-08-12T17:14:59.392Z,30.49
2018-08-12T17:17:03.891Z,30.40
2018-08-12T17:19:11.922Z,30.32
2018-08-12T17:21:18.608Z,30.29
2018-08-12T17:23:24.873Z,30.24
2018-08-12T17:25:29.084Z,30.23
2018-08-12T17:27:32.710Z,30.21
2018-08-12T17:29:37.075Z,30.21
2018-08-12T17:31:45.384Z,30.14
2018-08-12T17:33:55.657Z,30.10
2018-08-12T17:36:02.122Z,30.08
2018-08-12T17:38:05.949Z,30.09
2018-08-12T17:40:11.645Z,30.07
2018-08-12T17:42:16.166Z,30.04
2018-08-12T17:44:20.662Z,30.01
2018-08-12T17:46:27.846Z,30.01
2018-08-12T17:48:31.942Z,30.02
2018-08-12T17:50:35.809Z,29.94
2018-08-12T17:52:44.978Z,29.92
2018-08-12T17:54:55.853Z,29.83
2018-08-12T17:57:01.386Z,29.81
2018-08-12T17:59:07.161Z,29.77
2018-08-12T18:01:11.100Z,29.69
2018-08-12T18:03:15.475Z,29.65
2018-08-12T18:05:19.344Z,29.55
2018-08-12T18:07:23.947Z,29.51
2018-08-12T18:09:31.552Z,29.44
2018-08-12T18:11:35.778Z,29.36
2018-08-12T18:13:40.269Z,29.37
2018-08-12T18:15:45.664Z,29.30
2018-08-12T18:17:53.353Z,29.13
2018-08-12T18:20:00.712Z,29.06
2018-08-12T18:22:05.470Z,29.08
2018-08-12T18:24:10.653Z,29.12
2018-08-12T18:26:14.771Z,29.02
2018-08-12T18:28:19.613Z,28.90
2018-08-12T18:30:24.175Z,28.78
2018-08-12T18:32:28.990Z,28.66
2018-08-12T18:34:33.138Z,28.66
2018-08-12T18:36:36.999Z,28.62
2018-08-12T18:38:40.994Z,28.55
2018-08-12T18:40:44.943Z,28.59
2018-08-12T18:42:51.557Z,28.50
2018-08-12T18:44:57.837Z,28.51
2018-08-12T18:47:06.817Z,28.40
2018-08-12T18:49:11.404Z,28.32
2018-08-12T18:51:16.197Z,28.30
2018-08-12T18:53:20.209Z,28.24
2018-08-12T18:55:24.030Z,28.09
2018-08-12T18:57:28.818Z,28.11
2018-08-12T18:59:38.013Z,28.14
2018-08-12T19:01:41.736Z,28.09
2018-08-12T19:03:46.568Z,28.03
2018-08-12T19:05:56.820Z,27.90
2018-08-12T19:08:04.689Z,27.88
2018-08-12T19:10:13.248Z,27.86
2018-08-12T19:12:17.907Z,27.78
2018-08-12T19:14:22.069Z,27.87
2018-08-12T19:16:26.672Z,27.98
2018-08-12T19:18:30.938Z,27.86
2018-08-12T19:20:34.635Z,27.93
2018-08-12T19:22:38.918Z,28.00
2018-08-12T19:24:42.494Z,27.84
2018-08-12T19:26:46.538Z,27.77
2018-08-12T19:28:50.578Z,27.79
2018-08-12T19:30:54.332Z,27.67
2018-08-12T19:33:01.408Z,27.68
2018-08-12T19:35:08.181Z,27.73
2018-08-12T19:37:13.896Z,27.89
2018-08-12T19:39:18.133Z,27.91
2018-08-12T19:41:22.293Z,27.91
2018-08-12T19:43:29.449Z,27.81
2018-08-12T19:45:33.578Z,27.77
2018-08-12T19:47:38.175Z,27.91
2018-08-12T19:49:42.374Z,27.98
2018-08-12T19:51:46.203Z,27.89
2018-08-12T19:53:50.178Z,27.88
2018-08-12T19:55:54.187Z,27.95
2018-08-12T19:57:58.866Z,27.94
2018-08-12T20:02:20.580Z,27.80
2018-08-12T20:04:25.584Z,27.79
2018-08-12T20:06:29.494Z,27.82
2018-08-12T20:08:37.371Z,27.82
2018-08-12T20:10:41.356Z,27.81
2018-08-12T20:12:46.331Z,27.80
2018-08-12T20:14:52.225Z,27.78
2018-08-12T20:16:55.857Z,27.75
2018-08-12T20:19:00.317Z,27.73
2018-08-12T20:21:05.224Z,27.72
2018-08-12T20:23:12.265Z,27.71
2018-08-12T20:25:19.616Z,27.69
2018-08-12T20:27:27.650Z,27.71
2018-08-12T20:29:31.794Z,27.66
2018-08-12T20:31:36.042Z,27.55
2018-08-12T20:33:42.645Z,27.53
2018-08-12T20:35:48.695Z,27.56
2018-08-12T20:37:57.573Z,27.54
2018-08-12T20:40:03.564Z,27.49
2018-08-12T20:42:07.420Z,27.48
2018-08-12T20:44:11.312Z,27.48
2018-08-12T20:46:15.434Z,27.48
2018-08-12T20:48:19.001Z,27.48
2018-08-12T20:50:23.150Z,27.49
2018-08-12T20:59:00.826Z,27.40
2018-08-12T21:01:04.720Z,27.37
2018-08-12T21:03:08.764Z,27.36
2018-08-12T21:05:13.621Z,27.33
2018-08-12T21:07:17.362Z,27.32
2018-08-12T21:09:21.012Z,27.34
2018-08-12T21:11:24.637Z,27.36
2018-08-12T21:13:28.876Z,27.28
2018-08-12T21:15:33.387Z,27.26
2018-08-12T21:17:37.031Z,27.10
2018-08-12T21:19:40.688Z,27.06
2018-08-12T21:21:44.357Z,27.03
2018-08-12T21:23:51.181Z,27.10
2018-08-12T21:25:56.710Z,27.14
2018-08-12T21:28:03.752Z,27.13
2018-08-12T21:30:08.235Z,27.20
2018-08-12T21:32:13.025Z,27.13
2018-08-12T21:34:17.419Z,27.15
2018-08-12T21:36:21.439Z,27.06
2018-08-12T21:38:25.109Z,27.13
2018-08-12T21:40:29.272Z,27.15
2018-08-12T21:42:33.146Z,27.13
2018-08-12T21:44:37.366Z,26.95
2018-08-12T21:46:41.436Z,26.89
2018-08-12T21:48:45.404Z,26.75
2018-08-12T21:50:49.514Z,26.56
2018-08-12T21:52:56.833Z,26.48
2018-08-12T21:55:02.384Z,26.60
2018-08-12T21:57:08.747Z,26.63
2018-08-12T21:59:12.601Z,26.73
2018-08-12T22:01:16.142Z,26.64
2018-08-12T22:03:19.885Z,26.63
2018-08-12T22:05:23.686Z,26.74
2018-08-12T22:08:52.170Z,26.70
2018-08-12T22:10:59.406Z,26.72
2018-08-12T22:13:04.250Z,26.78
2018-08-12T22:15:09.427Z,26.71
2018-08-12T22:17:15.417Z,26.60
2018-08-12T22:19:19.876Z,26.68
2018-08-12T22:21:23.734Z,26.54
2018-08-12T22:23:27.712Z,26.42
2018-08-12T22:25:31.424Z,26.50
2018-08-12T22:27:35.135Z,26.47
2018-08-12T22:29:38.975Z,26.46
2018-08-12T22:31:43.533Z,26.44
2018-08-12T22:33:47.153Z,26.45
2018-08-12T22:35:51.163Z,26.42
2018-08-12T22:37:55.217Z,26.39
2018-08-12T22:40:00.652Z,26.34
2018-08-12T22:42:08.285Z,26.39
2018-08-12T22:44:22.070Z,26.32
2018-08-12T22:46:27.145Z,26.23
2018-08-12T22:48:34.598Z,26.31
2018-08-12T22:50:38.748Z,26.21
2018-08-12T22:52:42.760Z,26.22
2018-08-12T22:54:46.655Z,26.17
2018-08-12T22:56:50.238Z,26.24
2018-08-12T22:58:54.232Z,26.04
2018-08-12T23:01:00.457Z,25.78
2018-08-12T23:03:07.949Z,25.72
2018-08-12T23:05:17.372Z,25.64
2018-08-12T23:07:24.801Z,25.64
2018-08-12T23:09:28.449Z,25.38
2018-08-12T23:11:32.376Z,25.20
2018-08-12T23:13:40.337Z,25.18
2018-08-12T23:16:23.806Z,25.30
2018-08-12T23:18:27.592Z,25.13
2018-08-12T23:20:35.016Z,24.94
2018-08-12T23:22:42.114Z,25.03
2018-08-12T23:24:49.128Z,25.03
2018-08-12T23:26:58.452Z,25.05
2018-08-12T23:29:02.569Z,24.91
2018-08-12T23:31:07.359Z,25.02
2018-08-12T23:33:18.617Z,25.38
2018-08-12T23:35:25.177Z,25.05
2018-08-12T23:37:28.841Z,25.13
2018-08-12T23:39:35.295Z,25.34
2018-08-12T23:41:42.315Z,25.14
2018-08-12T23:43:55.748Z,25.14
2018-08-12T23:45:59.839Z,25.03
2018-08-12T23:48:04.837Z,25.10
2018-08-12T23:50:09.178Z,24.88
2018-08-12T23:52:13.826Z,24.82
2018-08-12T23:54:19.824Z,25.10
2018-08-12T23:56:23.601Z,25.05
2018-08-12T23:58:29.465Z,25.42
